createdAt,value
2023-03-16T00:02:48.683Z,80.10
2023-03-16T00:06:31.366Z,79.91
2023-03-16T00:10:14.588Z,79.94
2023-03-16T00:13:58.607Z,79.54
2023-03-16T00:17:42.648Z,79.47
2023-03-16T00:21:25.681Z,79.21
2023-03-16T00:25:09.870Z,79.41
2023-03-16T00:28:54.390Z,79.17
2023-03-16T00:32:38.606Z,78.93
2023-03-16T00:36:22.799Z,79.05
2023-03-16T00:40:07.839Z,78.96
2023-03-16T00:43:51.726Z,78.89
2023-03-16T00:47:38.399Z,78.73
2023-03-16T00:51:22.916Z,78.63
2023-03-16T00:55:06.220Z,78.40
2023-03-16T00:58:48.928Z,78.72
2023-03-16T01:02:31.577Z,78.62
2023-03-16T01:06:17.026Z,78.88
2023-03-16T01:10:01.162Z,78.90
2023-03-16T01:13:43.948Z,78.46
2023-03-16T01:17:26.847Z,78.49
2023-03-16T01:21:10.376Z,78.82
2023-03-16T01:24:53.114Z,78.59
2023-03-16T01:28:37.260Z,78.72
2023-03-16T01:32:19.955Z,78.76
2023-03-16T01:36:06.639Z,78.75
2023-03-16T01:39:49.458Z,78.96
2023-03-16T01:43:34.346Z,78.86
2023-03-16T01:47:18.422Z,79.13
2023-03-16T01:51:01.185Z,79.10
2023-03-16T01:54:47.395Z,78.85
2023-03-16T01:58:30.271Z,78.94
2023-03-16T02:02:14.945Z,78.84
2023-03-16T02:06:00.720Z,78.85
2023-03-16T02:09:46.248Z,78.83
2023-03-16T02:13:29.635Z,78.92
2023-03-16T02:17:12.952Z,78.84
2023-03-16T02:21:02.065Z,78.66
2023-03-16T02:24:44.812Z,78.99
2023-03-16T02:28:32.271Z,79.21
2023-03-16T02:32:16.565Z,79.40
2023-03-16T02:35:59.277Z,79.62
2023-03-16T02:39:44.000Z,79.72
2023-03-16T02:43:29.195Z,79.49
2023-03-16T02:47:16.591Z,79.78
2023-03-16T02:50:59.521Z,79.98
2023-03-16T02:54:42.173Z,80.17
2023-03-16T02:58:24.827Z,79.85
2023-03-16T03:02:09.215Z,79.94
2023-03-16T03:05:54.900Z,80.18
2023-03-16T03:09:37.549Z,79.80
2023-03-16T03:13:20.260Z,79.86
2023-03-16T03:17:04.215Z,79.86
2023-03-16T03:20:46.932Z,80.06
2023-03-16T03:24:31.722Z,80.61
2023-03-16T03:28:14.733Z,80.78
2023-03-16T03:31:57.478Z,81.00
2023-03-16T03:35:42.048Z,80.84
2023-03-16T03:39:25.152Z,80.77
2023-03-16T03:43:09.330Z,81.05
2023-03-16T03:46:52.632Z,81.00
2023-03-16T03:50:35.368Z,81.38
2023-03-16T03:54:18.248Z,81.23
2023-03-16T03:58:01.011Z,81.41
2023-03-16T04:01:45.122Z,81.18
2023-03-16T04:05:28.285Z,80.74
2023-03-16T04:09:11.458Z,81.10
2023-03-16T04:12:54.234Z,80.98
2023-03-16T04:16:36.916Z,80.94
2023-03-16T04:20:22.044Z,80.91
2023-03-16T04:24:05.243Z,81.40
2023-03-16T04:27:47.969Z,81.55
2023-03-16T04:31:30.683Z,81.46
2023-03-16T04:35:13.399Z,81.25
2023-03-16T04:38:57.427Z,81.60
2023-03-16T04:42:40.104Z,81.66
2023-03-16T04:46:22.858Z,81.73
2023-03-16T04:50:06.348Z,81.72
2023-03-16T04:53:49.160Z,81.73
2023-03-16T04:57:35.023Z,81.96
2023-03-16T05:01:18.305Z,81.93
2023-03-16T05:05:01.007Z,82.23
2023-03-16T05:08:43.692Z,81.76
2023-03-16T05:12:26.373Z,81.54
2023-03-16T05:16:10.466Z,81.98
2023-03-16T05:19:53.209Z,81.71
2023-03-16T05:23:36.750Z,81.93
2023-03-16T05:27:20.480Z,81.65
2023-03-16T05:31:03.755Z,81.89
2023-03-16T05:34:47.841Z,81.75
2023-03-16T05:38:31.880Z,82.05
2023-03-16T05:42:14.654Z,81.60
2023-03-16T05:45:58.102Z,81.50
2023-03-16T05:49:40.787Z,81.71
2023-03-16T05:53:29.160Z,81.63
2023-03-16T05:57:12.101Z,81.78
2023-03-16T06:00:55.688Z,82.03
2023-03-16T06:04:38.338Z,81.73
2023-03-16T06:08:21.051Z,81.92
2023-03-16T06:12:06.603Z,82.11
2023-03-16T06:15:50.305Z,81.70
2023-03-16T06:19:33.153Z,81.90
2023-03-16T06:23:15.829Z,81.68
2023-03-16T06:26:58.506Z,82.00
2023-03-16T06:30:42.744Z,81.72
2023-03-16T06:34:25.473Z,81.85
2023-03-16T06:38:08.527Z,81.78
2023-03-16T06:41:52.686Z,81.58
2023-03-16T06:45:35.381Z,81.39
2023-03-16T06:49:19.474Z,81.71
2023-03-16T06:53:02.191Z,81.97
2023-03-16T06:56:46.409Z,82.31
2023-03-16T07:00:30.859Z,83.01
2023-03-16T07:04:13.680Z,83.58
2023-03-16T07:07:58.075Z,84.24
2023-03-16T07:11:41.000Z,85.22
2023-03-16T07:15:26.711Z,70.60
2023-03-16T07:19:13.807Z,64.62
2023-03-16T07:22:58.083Z,66.92
2023-03-16T07:26:41.317Z,68.58
2023-03-16T07:30:25.392Z,70.21
2023-03-16T07:34:08.132Z,72.17
2023-03-16T07:37:51.393Z,73.55
2023-03-16T07:41:35.479Z,73.75
2023-03-16T07:45:18.229Z,74.25
2023-03-16T07:49:01.317Z,75.08
2023-03-16T07:52:44.060Z,74.99
2023-03-16T07:56:29.717Z,74.71
2023-03-16T08:00:16.758Z,75.14
2023-03-16T08:03:59.546Z,76.13
2023-03-16T08:07:42.294Z,77.03
2023-03-16T08:11:25.008Z,77.86
2023-03-16T08:15:08.995Z,78.16
2023-03-16T08:18:53.118Z,77.35
2023-03-16T08:22:37.223Z,77.09
2023-03-16T08:26:20.842Z,76.36
2023-03-16T08:30:06.129Z,76.15
2023-03-16T08:33:49.670Z,75.94
2023-03-16T08:37:33.676Z,75.35
2023-03-16T08:41:17.507Z,74.57
2023-03-16T08:45:00.984Z,75.43
2023-03-16T08:48:43.787Z,75.69
2023-03-16T08:52:26.558Z,75.40
2023-03-16T08:56:12.369Z,74.97
2023-03-16T08:59:55.036Z,74.69
2023-03-16T09:03:37.690Z,74.40
2023-03-16T09:07:20.649Z,74.32
2023-03-16T09:11:07.503Z,73.71
2023-03-16T09:14:51.594Z,73.92
2023-03-16T09:18:35.424Z,73.90
2023-03-16T09:22:18.473Z,73.17
2023-03-16T09:26:02.784Z,73.02
2023-03-16T09:29:45.597Z,73.12
2023-03-16T09:33:31.902Z,73.35
2023-03-16T09:37:15.487Z,73.08
2023-03-16T09:41:00.636Z,73.48
2023-03-16T09:44:48.840Z,73.67
2023-03-16T09:48:35.574Z,73.49
2023-03-16T09:52:26.534Z,73.85
2023-03-16T09:57:04.244Z,73.35
2023-03-16T10:01:41.864Z,72.33
2023-03-16T10:05:26.195Z,71.88
2023-03-16T10:09:22.434Z,71.61
2023-03-16T10:17:10.824Z,70.91
2023-03-16T10:20:55.981Z,71.96
2023-03-16T10:24:44.354Z,71.33
2023-03-16T10:28:28.921Z,70.47
2023-03-16T10:32:16.548Z,70.13
2023-03-16T10:36:03.814Z,69.72
2023-03-16T10:39:46.849Z,69.22
2023-03-16T10:43:32.139Z,68.83
2023-03-16T10:47:20.430Z,68.65
2023-03-16T10:51:08.240Z,68.86
2023-03-16T10:54:52.731Z,68.70
2023-03-16T10:58:36.548Z,67.68
2023-03-16T11:02:22.678Z,67.44
2023-03-16T11:06:08.960Z,66.03
2023-03-16T11:09:52.627Z,66.13
2023-03-16T11:13:38.754Z,67.38
2023-03-16T11:17:27.202Z,67.50
2023-03-16T11:21:16.383Z,68.64
2023-03-16T11:25:06.470Z,67.84
2023-03-16T11:28:53.254Z,67.08
2023-03-16T11:32:41.025Z,65.76
2023-03-16T11:36:39.301Z,66.12
2023-03-16T11:40:38.463Z,65.79
2023-03-16T11:44:28.072Z,66.40
2023-03-16T11:48:30.404Z,65.79
2023-03-16T11:52:18.535Z,65.25
2023-03-16T11:56:11.710Z,66.08
2023-03-16T12:00:05.873Z,64.17
2023-03-16T12:04:16.257Z,64.43
2023-03-16T12:08:11.010Z,64.47
2023-03-16T12:11:56.309Z,63.19
2023-03-16T12:15:42.413Z,62.17
2023-03-16T12:19:30.570Z,59.78
2023-03-16T12:23:15.895Z,61.20
2023-03-16T12:26:59.669Z,60.62
2023-03-16T12:30:49.002Z,57.88
2023-03-16T12:34:35.750Z,63.77
2023-03-16T12:38:27.439Z,69.91
2023-03-16T12:42:26.567Z,58.32
2023-03-16T12:46:11.917Z,56.54
2023-03-16T12:49:56.500Z,53.35
2023-03-16T12:53:48.557Z,53.75
2023-03-16T12:57:32.028Z,53.04
2023-03-16T13:01:16.931Z,52.67
2023-03-16T13:05:01.713Z,50.86
2023-03-16T13:08:51.421Z,50.70
2023-03-16T13:12:37.077Z,50.90
2023-03-16T13:16:28.314Z,49.52
2023-03-16T13:20:31.518Z,48.54
2023-03-16T13:24:28.482Z,46.46
2023-03-16T13:28:14.630Z,46.44
2023-03-16T13:31:59.356Z,46.70
2023-03-16T13:35:42.185Z,44.49
2023-03-16T13:39:28.349Z,46.71
2023-03-16T13:43:15.905Z,47.73
2023-03-16T13:46:59.012Z,43.82
2023-03-16T13:50:43.186Z,41.10
2023-03-16T13:54:29.764Z,41.58
2023-03-16T13:58:21.614Z,51.45
2023-03-16T14:02:04.350Z,41.60
2023-03-16T14:05:47.577Z,45.54
2023-03-16T14:09:34.535Z,39.22
2023-03-16T14:13:26.569Z,39.29
2023-03-16T14:17:12.844Z,38.44
2023-03-16T14:20:57.044Z,38.38
2023-03-16T14:24:41.651Z,38.22
2023-03-16T14:28:32.082Z,37.61
2023-03-16T14:32:23.438Z,38.74
2023-03-16T14:36:13.038Z,37.84
2023-03-16T14:40:06.014Z,36.89
2023-03-16T14:43:51.587Z,36.33
2023-03-16T14:47:41.782Z,35.95
2023-03-16T14:51:25.418Z,35.61
2023-03-16T14:55:14.646Z,36.34
2023-03-16T14:58:57.475Z,36.11
2023-03-16T15:02:42.167Z,35.88
2023-03-16T15:06:26.478Z,34.75
2023-03-16T15:10:22.016Z,35.53
2023-03-16T15:14:35.597Z,35.36
2023-03-16T15:18:18.502Z,34.37
2023-03-16T15:22:01.902Z,34.63
2023-03-16T15:25:46.607Z,34.62
2023-03-16T15:29:29.469Z,33.12
2023-03-16T15:33:12.779Z,32.21
2023-03-16T15:36:56.269Z,32.35
2023-03-16T15:40:40.617Z,31.92
2023-03-16T15:44:24.688Z,33.26
2023-03-16T15:48:10.758Z,33.51
2023-03-16T15:51:53.775Z,32.75
2023-03-16T15:55:38.334Z,32.68
2023-03-16T15:59:22.160Z,32.68
2023-03-16T16:03:08.022Z,32.93
2023-03-16T16:06:53.613Z,33.60
2023-03-16T16:10:36.519Z,33.92
2023-03-16T16:14:24.675Z,34.54
2023-03-16T16:18:24.545Z,34.94
2023-03-16T16:22:09.833Z,35.10
2023-03-16T16:25:53.148Z,35.21
2023-03-16T16:29:35.878Z,36.01
2023-03-16T16:33:24.935Z,36.34
2023-03-16T16:37:09.908Z,37.54
2023-03-16T16:40:53.509Z,38.17
2023-03-16T16:44:38.127Z,38.95
2023-03-16T16:48:32.849Z,39.59
2023-03-16T16:52:16.830Z,40.02
2023-03-16T16:55:59.815Z,40.43
2023-03-16T16:59:44.834Z,40.96
2023-03-16T17:03:30.496Z,41.62
2023-03-16T17:07:13.945Z,41.98
2023-03-16T17:10:57.143Z,42.61
2023-03-16T17:14:41.371Z,43.02
2023-03-16T17:18:24.388Z,43.54
2023-03-16T17:22:26.103Z,43.96
2023-03-16T17:26:15.929Z,45.36
2023-03-16T17:29:59.118Z,45.81
2023-03-16T17:33:42.228Z,45.85
2023-03-16T17:37:26.348Z,45.79
2023-03-16T17:41:21.572Z,46.70
2023-03-16T17:45:04.909Z,46.96
2023-03-16T17:48:47.817Z,47.01
2023-03-16T17:52:32.488Z,46.98
2023-03-16T17:56:19.700Z,47.60
2023-03-16T18:00:03.176Z,47.63
2023-03-16T18:03:46.168Z,48.04
2023-03-16T18:07:29.053Z,48.36
2023-03-16T18:11:17.679Z,50.34
2023-03-16T18:15:01.508Z,50.46
2023-03-16T18:18:44.618Z,50.16
2023-03-16T18:22:27.973Z,50.18
2023-03-16T18:26:11.636Z,50.13
2023-03-16T18:29:55.932Z,49.82
2023-03-16T18:33:40.992Z,50.06
2023-03-16T18:37:25.158Z,50.20
2023-03-16T18:41:16.890Z,50.30
2023-03-16T18:45:01.322Z,50.60
2023-03-16T18:48:44.039Z,50.47
2023-03-16T18:52:29.158Z,50.67
2023-03-16T18:56:19.671Z,52.39
2023-03-16T19:00:03.836Z,53.21
2023-03-16T19:03:46.635Z,53.34
2023-03-16T19:07:33.820Z,52.93
2023-03-16T19:11:18.059Z,53.11
2023-03-16T19:15:00.742Z,53.23
2023-03-16T19:18:43.874Z,53.46
2023-03-16T19:22:26.530Z,52.93
2023-03-16T19:26:09.539Z,53.06
2023-03-16T19:29:52.859Z,53.03
2023-03-16T19:33:35.533Z,53.57
2023-03-16T19:37:19.976Z,53.56
2023-03-16T19:41:02.749Z,53.85
2023-03-16T19:44:48.894Z,53.25
2023-03-16T19:48:33.743Z,53.39
2023-03-16T19:52:16.489Z,53.94
2023-03-16T19:56:01.448Z,53.95
2023-03-16T19:59:46.597Z,54.91
2023-03-16T20:03:29.582Z,55.99
2023-03-16T20:07:16.388Z,56.98
2023-03-16T20:11:04.239Z,56.50
2023-03-16T20:14:47.012Z,55.97
2023-03-16T20:18:30.020Z,55.99
2023-03-16T20:22:18.306Z,56.18
2023-03-16T20:26:03.161Z,55.50
2023-03-16T20:29:46.889Z,56.26
2023-03-16T20:33:29.805Z,56.20
2023-03-16T20:37:23.770Z,56.43
2023-03-16T20:41:13.274Z,57.13
2023-03-16T20:44:56.313Z,57.41
2023-03-16T20:48:38.991Z,56.94
2023-03-16T20:52:23.509Z,56.71
2023-03-16T20:56:10.850Z,56.85
2023-03-16T20:59:57.070Z,56.73
2023-03-16T21:03:39.758Z,56.95
2023-03-16T21:07:23.044Z,57.23
2023-03-16T21:11:10.218Z,57.20
2023-03-16T21:14:52.910Z,57.70
2023-03-16T21:18:35.974Z,58.83
2023-03-16T21:22:29.557Z,59.44
2023-03-16T21:26:16.416Z,59.17
2023-03-16T21:30:18.473Z,59.01
2023-03-16T21:34:01.881Z,59.22
2023-03-16T21:37:45.102Z,60.06
2023-03-16T21:41:29.092Z,59.44
2023-03-16T21:45:12.626Z,59.16
2023-03-16T21:48:56.316Z,59.33
2023-03-16T21:52:40.131Z,59.40
2023-03-16T21:56:26.026Z,59.34
2023-03-16T22:00:17.066Z,59.91
2023-03-16T22:04:03.770Z,59.87
2023-03-16T22:07:46.596Z,60.73
2023-03-16T22:11:30.811Z,61.20
2023-03-16T22:15:15.144Z,61.56
2023-03-16T22:18:58.608Z,61.17
2023-03-16T22:22:41.441Z,61.08
2023-03-16T22:26:24.861Z,61.03
2023-03-16T22:30:09.012Z,61.25
2023-03-16T22:33:53.157Z,61.24
2023-03-16T22:37:36.013Z,60.96
2023-03-16T22:41:18.733Z,61.16
2023-03-16T22:45:03.855Z,61.52
2023-03-16T22:48:46.574Z,61.47
2023-03-16T22:52:33.308Z,61.88
2023-03-16T22:56:16.169Z,61.76
2023-03-16T22:59:59.778Z,61.82
2023-03-16T23:03:42.584Z,62.23
2023-03-16T23:07:25.264Z,62.14
2023-03-16T23:11:14.296Z,62.28
2023-03-16T23:14:57.336Z,62.31
2023-03-16T23:18:39.988Z,62.42
2023-03-16T23:22:25.627Z,62.49
2023-03-16T23:26:16.235Z,62.25
2023-03-16T23:29:58.985Z,62.46
2023-03-16T23:33:42.180Z,62.68
2023-03-16T23:37:24.954Z,62.83
2023-03-16T23:41:07.907Z,63.20
2023-03-16T23:44:51.916Z,63.41
2023-03-16T23:48:34.817Z,63.48
2023-03-16T23:52:17.624Z,63.56
2023-03-16T23:56:00.873Z,63.66
2023-03-16T23:59:43.512Z,63.71
